createdAt,value
2018-09-15T00:00:47.898Z,13.20
2018-09-15T00:03:15.934Z,13.10
2018-09-15T00:05:43.985Z,13.00
2018-09-15T00:08:12.089Z,13.00
2018-09-15T00:10:40.086Z,12.90
2018-09-15T00:13:08.142Z,12.80
2018-09-15T00:15:36.215Z,12.70
2018-09-15T00:18:06.495Z,12.70
2018-09-15T00:20:34.561Z,12.60
2018-09-15T00:23:02.655Z,12.60
2018-09-15T00:25:30.672Z,12.50
2018-09-15T00:27:58.740Z,12.50
2018-09-15T00:30:26.815Z,12.60
2018-09-15T00:32:54.865Z,12.70
2018-09-15T00:35:22.947Z,12.70
2018-09-15T00:37:51.264Z,12.80
2018-09-15T00:40:19.327Z,12.80
2018-09-15T00:42:47.607Z,12.90
2018-09-15T00:45:15.774Z,13.00
2018-09-15T00:47:43.828Z,13.10
2018-09-15T00:50:11.898Z,13.10
2018-09-15T00:52:39.952Z,13.20
2018-09-15T00:55:08.016Z,13.20
2018-09-15T00:57:36.076Z,13.30
2018-09-15T01:00:05.464Z,13.30
2018-09-15T01:02:33.510Z,13.30
2018-09-15T01:05:01.561Z,13.30
2018-09-15T01:07:29.597Z,13.20
2018-09-15T01:09:57.647Z,13.20
2018-09-15T01:12:25.695Z,13.10
2018-09-15T01:14:53.743Z,13.00
2018-09-15T01:17:21.778Z,12.90
2018-09-15T01:19:49.825Z,12.80
2018-09-15T01:22:17.898Z,12.60
2018-09-15T01:24:46.241Z,12.50
2018-09-15T01:27:14.422Z,12.40
2018-09-15T01:29:42.455Z,12.30
2018-09-15T01:32:10.494Z,12.20
2018-09-15T01:34:38.535Z,12.20
2018-09-15T01:37:06.583Z,12.10
2018-09-15T01:39:34.632Z,12.00
2018-09-15T01:42:02.676Z,12.00
2018-09-15T01:44:30.730Z,12.00
2018-09-15T01:46:58.774Z,12.00
2018-09-15T01:49:26.819Z,12.10
2018-09-15T01:51:54.882Z,12.10
2018-09-15T01:54:22.938Z,12.10
2018-09-15T01:56:51.051Z,12.20
2018-09-15T01:59:19.099Z,12.30
2018-09-15T02:01:47.150Z,12.40
2018-09-15T02:04:15.262Z,12.50
2018-09-15T02:06:43.311Z,12.60
2018-09-15T02:09:13.342Z,12.60
2018-09-15T02:11:41.604Z,12.70
2018-09-15T02:14:09.638Z,12.80
2018-09-15T02:16:37.717Z,12.90
2018-09-15T02:19:05.827Z,13.00
2018-09-15T02:21:33.911Z,13.00
2018-09-15T02:24:01.962Z,13.00
2018-09-15T02:26:30.002Z,13.10
2018-09-15T02:28:58.056Z,13.10
2018-09-15T02:31:26.108Z,13.10
2018-09-15T02:33:54.151Z,13.10
2018-09-15T02:36:22.198Z,13.10
2018-09-15T02:38:50.314Z,13.00
2018-09-15T02:41:18.365Z,12.90
2018-09-15T02:43:46.790Z,12.80
2018-09-15T02:46:15.242Z,12.70
2018-09-15T02:48:43.330Z,12.60
2018-09-15T02:51:11.476Z,12.40
2018-09-15T02:53:39.853Z,12.30
2018-09-15T02:56:07.923Z,12.20
2018-09-15T02:58:35.995Z,12.10
2018-09-15T03:01:04.045Z,12.00
2018-09-15T03:03:32.108Z,11.90
2018-09-15T03:06:00.159Z,11.80
2018-09-15T03:08:28.291Z,11.80
2018-09-15T03:10:56.405Z,11.70
2018-09-15T03:13:24.415Z,11.70
2018-09-15T03:15:52.452Z,11.60
2018-09-15T03:18:20.508Z,11.60
2018-09-15T03:20:48.628Z,11.50
2018-09-15T03:23:16.677Z,11.50
2018-09-15T03:25:44.714Z,11.40
2018-09-15T03:28:12.842Z,11.40
2018-09-15T03:30:40.895Z,11.30
2018-09-15T03:33:08.967Z,11.30
2018-09-15T03:35:37.027Z,11.30
2018-09-15T03:38:05.099Z,11.30
2018-09-15T03:40:33.138Z,11.30
2018-09-15T03:43:01.191Z,11.20
2018-09-15T03:45:29.238Z,11.20
2018-09-15T03:47:57.289Z,11.20
2018-09-15T03:50:25.383Z,11.10
2018-09-15T03:52:53.434Z,11.10
2018-09-15T03:55:21.494Z,11.10
2018-09-15T03:57:49.595Z,11.10
2018-09-15T04:00:17.655Z,11.00
2018-09-15T04:02:45.715Z,11.00
2018-09-15T04:05:13.768Z,11.00
2018-09-15T04:07:41.805Z,10.90
2018-09-15T04:10:09.839Z,10.90
2018-09-15T04:12:37.878Z,10.90
2018-09-15T04:15:05.918Z,11.00
2018-09-15T04:17:33.957Z,10.90
2018-09-15T04:20:02.009Z,11.00
2018-09-15T04:22:30.043Z,11.00
2018-09-15T04:24:58.078Z,10.90
2018-09-15T04:27:26.135Z,10.90
2018-09-15T04:29:54.159Z,10.90
2018-09-15T04:32:22.208Z,10.80
2018-09-15T04:34:50.239Z,10.80
2018-09-15T04:37:18.311Z,10.70
2018-09-15T04:39:46.354Z,10.70
2018-09-15T04:42:14.412Z,10.70
2018-09-15T04:44:42.454Z,10.60
2018-09-15T04:47:10.585Z,10.60
2018-09-15T04:49:38.622Z,10.50
2018-09-15T04:52:06.743Z,10.50
2018-09-15T04:54:34.786Z,10.50
2018-09-15T04:57:02.826Z,10.50
2018-09-15T04:59:30.951Z,10.50
2018-09-15T05:01:58.994Z,10.60
2018-09-15T05:04:27.031Z,10.80
2018-09-15T05:06:55.154Z,11.00
2018-09-15T05:09:23.186Z,11.20
2018-09-15T05:11:51.206Z,11.40
2018-09-15T05:14:19.366Z,11.70
2018-09-15T05:16:47.389Z,11.90
2018-09-15T05:19:15.517Z,12.20
2018-09-15T05:21:43.554Z,12.50
2018-09-15T05:24:11.603Z,12.70
2018-09-15T05:26:39.642Z,13.00
2018-09-15T05:29:07.687Z,13.30
2018-09-15T05:31:35.761Z,13.70
2018-09-15T05:34:03.742Z,14.10
2018-09-15T05:36:31.806Z,14.60
2018-09-15T05:38:59.863Z,15.10
2018-09-15T05:41:27.906Z,15.90
2018-09-15T05:43:56.114Z,17.10
2018-09-15T05:46:24.147Z,18.50
2018-09-15T05:48:52.192Z,19.50
2018-09-15T05:51:20.323Z,20.10
2018-09-15T05:53:48.392Z,20.40
2018-09-15T05:56:16.479Z,19.90
2018-09-15T05:58:44.523Z,19.10
2018-09-15T06:01:12.558Z,18.70
2018-09-15T06:03:40.609Z,18.30
2018-09-15T06:06:08.637Z,18.10
2018-09-15T06:08:36.679Z,18.10
2018-09-15T06:11:04.804Z,18.50
2018-09-15T06:13:32.866Z,18.80
2018-09-15T06:16:00.910Z,19.00
2018-09-15T06:18:28.947Z,19.00
2018-09-15T06:20:56.987Z,19.10
2018-09-15T06:23:25.083Z,19.30
2018-09-15T06:25:53.147Z,19.40
2018-09-15T06:28:21.192Z,19.50
2018-09-15T06:30:49.254Z,19.80
2018-09-15T06:33:17.278Z,20.10
2018-09-15T06:35:45.318Z,20.30
2018-09-15T06:38:13.369Z,20.60
2018-09-15T06:40:41.419Z,20.80
2018-09-15T06:43:09.546Z,21.10
2018-09-15T06:45:37.775Z,21.50
2018-09-15T06:48:05.794Z,21.70
2018-09-15T06:50:33.829Z,21.90
2018-09-15T06:53:01.883Z,21.90
2018-09-15T06:55:30.055Z,21.90
2018-09-15T06:57:58.098Z,22.00
2018-09-15T07:00:26.138Z,22.10
2018-09-15T07:02:54.194Z,22.10
2018-09-15T07:05:22.235Z,22.00
2018-09-15T07:07:50.279Z,22.10
2018-09-15T07:10:18.327Z,22.40
2018-09-15T07:12:46.461Z,22.40
2018-09-15T07:15:14.504Z,22.50
2018-09-15T07:17:42.535Z,22.70
2018-09-15T07:20:10.594Z,23.00
2018-09-15T07:22:38.617Z,23.20
2018-09-15T07:25:06.662Z,23.60
2018-09-15T07:27:34.718Z,23.70
2018-09-15T07:30:02.777Z,24.00
2018-09-15T07:32:30.833Z,24.20
2018-09-15T07:34:58.868Z,24.50
2018-09-15T07:37:26.955Z,24.80
2018-09-15T07:39:54.956Z,25.10
2018-09-15T07:42:23.307Z,25.20
2018-09-15T07:44:51.432Z,25.50
2018-09-15T07:47:19.393Z,25.70
2018-09-15T07:49:47.437Z,26.20
2018-09-15T07:52:15.485Z,26.40
2018-09-15T07:54:43.544Z,26.60
2018-09-15T07:57:11.574Z,26.20
2018-09-15T07:59:39.654Z,26.10
2018-09-15T08:02:13.238Z,25.70
2018-09-15T08:04:41.282Z,25.60
2018-09-15T08:07:09.310Z,25.20
2018-09-15T08:09:37.343Z,25.10
2018-09-15T08:12:05.385Z,24.90
2018-09-15T08:14:33.444Z,25.00
2018-09-15T08:17:01.488Z,25.10
2018-09-15T08:19:29.541Z,25.10
2018-09-15T08:21:57.660Z,24.90
2018-09-15T08:24:25.703Z,25.00
2018-09-15T08:26:53.751Z,25.20
2018-09-15T08:29:21.980Z,25.20
2018-09-15T08:31:50.381Z,25.10
2018-09-15T08:34:18.447Z,25.00
2018-09-15T08:36:46.476Z,25.00
2018-09-15T08:39:14.518Z,25.00
2018-09-15T08:41:42.631Z,25.10
2018-09-15T08:44:10.684Z,25.20
2018-09-15T08:46:38.728Z,25.20
2018-09-15T08:49:07.046Z,25.30
2018-09-15T08:51:35.124Z,25.70
2018-09-15T08:54:03.182Z,26.00
2018-09-15T08:56:31.220Z,25.90
2018-09-15T08:58:59.531Z,25.90
2018-09-15T09:01:27.606Z,25.70
2018-09-15T09:03:55.647Z,25.90
2018-09-15T09:06:23.847Z,26.30
2018-09-15T09:08:52.123Z,26.30
2018-09-15T09:11:20.185Z,26.00
2018-09-15T09:13:48.242Z,25.50
2018-09-15T09:16:16.290Z,24.70
2018-09-15T09:18:44.818Z,24.40
2018-09-15T09:21:12.862Z,24.30
2018-09-15T09:23:40.892Z,24.20
2018-09-15T09:26:08.940Z,23.90
2018-09-15T09:28:36.980Z,23.90
2018-09-15T09:31:05.066Z,23.80
2018-09-15T09:33:33.185Z,23.70
2018-09-15T09:36:01.264Z,23.40
2018-09-15T09:38:29.300Z,22.90
2018-09-15T09:40:57.335Z,22.50
2018-09-15T09:43:25.361Z,22.20
2018-09-15T09:45:53.423Z,22.10
2018-09-15T09:48:21.525Z,22.10
2018-09-15T09:50:49.526Z,21.90
2018-09-15T09:53:17.583Z,21.60
2018-09-15T09:55:45.672Z,21.40
2018-09-15T09:58:13.699Z,21.40
2018-09-15T10:00:47.287Z,21.50
2018-09-15T10:03:15.329Z,21.50
2018-09-15T10:05:43.390Z,21.40
2018-09-15T10:08:11.431Z,21.40
2018-09-15T10:10:39.523Z,21.30
2018-09-15T10:13:07.567Z,21.30
2018-09-15T10:15:35.607Z,21.30
2018-09-15T10:18:03.730Z,21.30
2018-09-15T10:20:31.807Z,21.30
2018-09-15T10:22:59.835Z,21.60
2018-09-15T10:25:27.878Z,22.00
2018-09-15T10:27:55.910Z,22.60
2018-09-15T10:30:23.984Z,23.20
2018-09-15T10:32:52.026Z,23.60
2018-09-15T10:35:20.055Z,23.90
2018-09-15T10:37:48.095Z,23.70
2018-09-15T10:40:16.187Z,23.30
2018-09-15T10:42:44.183Z,22.90
2018-09-15T10:45:12.249Z,22.80
2018-09-15T10:47:40.374Z,22.70
2018-09-15T10:50:08.410Z,22.50
2018-09-15T10:52:37.298Z,22.30
2018-09-15T10:55:05.335Z,22.10
2018-09-15T10:57:33.368Z,21.90
2018-09-15T11:00:01.447Z,21.80
2018-09-15T11:02:29.487Z,21.70
2018-09-15T11:04:57.534Z,21.70
2018-09-15T11:07:25.583Z,21.90
2018-09-15T11:09:53.655Z,22.20
2018-09-15T11:12:21.687Z,22.40
2018-09-15T11:14:49.743Z,22.50
2018-09-15T11:17:17.775Z,22.50
2018-09-15T11:19:45.907Z,22.60
2018-09-15T11:22:13.939Z,22.50
2018-09-15T11:24:42.050Z,22.50
2018-09-15T11:27:10.104Z,22.30
2018-09-15T11:29:38.130Z,22.10
2018-09-15T11:32:06.174Z,22.10
2018-09-15T11:34:34.236Z,22.00
2018-09-15T11:37:02.364Z,21.90
2018-09-15T11:39:30.487Z,21.80
2018-09-15T11:41:58.563Z,21.60
2018-09-15T11:44:26.776Z,21.50
2018-09-15T11:46:55.016Z,21.30
2018-09-15T11:49:23.046Z,21.20
2018-09-15T11:51:51.356Z,21.10
2018-09-15T11:54:19.394Z,21.10
2018-09-15T11:56:47.435Z,21.10
2018-09-15T11:59:15.598Z,21.10
2018-09-15T12:01:43.687Z,21.20
2018-09-15T12:04:11.814Z,21.20
2018-09-15T12:06:39.939Z,21.30
2018-09-15T12:09:08.649Z,21.30
2018-09-15T12:11:37.241Z,21.40
2018-09-15T12:14:05.364Z,21.40
2018-09-15T12:16:33.477Z,21.30
2018-09-15T12:19:01.762Z,21.20
2018-09-15T12:21:29.929Z,21.20
2018-09-15T12:23:57.998Z,21.10
2018-09-15T12:26:26.042Z,21.00
2018-09-15T12:28:54.098Z,20.80
2018-09-15T12:31:22.237Z,20.80
2018-09-15T12:33:50.288Z,20.90
2018-09-15T12:36:18.331Z,20.90
2018-09-15T12:38:46.390Z,21.10
2018-09-15T12:41:14.438Z,21.10
2018-09-15T12:43:42.482Z,21.20
2018-09-15T12:46:10.561Z,21.30
2018-09-15T12:48:39.023Z,21.40
2018-09-15T12:51:07.520Z,21.40
2018-09-15T12:53:35.564Z,21.50
2018-09-15T12:56:03.644Z,21.60
2018-09-15T12:58:31.800Z,21.60
2018-09-15T13:00:59.834Z,21.50
2018-09-15T13:03:27.957Z,21.50
2018-09-15T13:05:56.007Z,21.40
2018-09-15T13:08:24.042Z,21.30
2018-09-15T13:10:52.075Z,21.40
2018-09-15T13:13:20.172Z,21.40
2018-09-15T13:15:48.290Z,21.50
2018-09-15T13:18:16.317Z,21.60
2018-09-15T13:20:44.359Z,21.40
2018-09-15T13:23:12.395Z,21.30
2018-09-15T13:25:40.431Z,21.20
2018-09-15T13:28:08.462Z,21.10
2018-09-15T13:30:36.499Z,21.00
2018-09-15T13:33:04.526Z,20.90
2018-09-15T13:35:32.558Z,20.80
2018-09-15T13:38:00.717Z,20.70
2018-09-15T13:40:28.704Z,20.60
2018-09-15T13:42:56.743Z,20.50
2018-09-15T13:45:24.769Z,20.30
2018-09-15T13:47:52.822Z,20.30
2018-09-15T13:50:20.866Z,20.20
2018-09-15T13:52:48.897Z,20.20
2018-09-15T13:55:16.923Z,20.20
2018-09-15T13:57:44.955Z,20.20
2018-09-15T14:00:13.058Z,20.30
2018-09-15T14:02:41.982Z,20.40
2018-09-15T14:05:11.092Z,20.50
2018-09-15T14:07:39.114Z,20.60
2018-09-15T14:10:07.358Z,20.70
2018-09-15T14:12:35.199Z,20.80
2018-09-15T14:15:03.226Z,20.80
2018-09-15T14:17:31.402Z,20.80
2018-09-15T14:19:59.434Z,20.80
2018-09-15T14:22:27.468Z,20.80
2018-09-15T14:24:55.490Z,20.80
2018-09-15T14:27:23.540Z,20.80
2018-09-15T14:29:51.610Z,20.70
2018-09-15T14:32:19.833Z,20.70
2018-09-15T14:34:48.010Z,20.70
2018-09-15T14:37:16.170Z,20.60
2018-09-15T14:39:44.198Z,20.50
2018-09-15T14:42:12.242Z,20.40
2018-09-15T14:44:40.270Z,20.30
2018-09-15T14:47:08.337Z,20.30
2018-09-15T14:49:36.367Z,20.20
2018-09-15T14:52:04.414Z,20.20
2018-09-15T14:54:32.470Z,20.30
2018-09-15T14:57:00.539Z,20.30
2018-09-15T14:59:28.565Z,20.30
2018-09-15T15:01:56.601Z,20.30
2018-09-15T15:04:24.751Z,20.30
2018-09-15T15:06:52.778Z,20.30
2018-09-15T15:09:20.948Z,20.20
2018-09-15T15:11:48.825Z,20.10
2018-09-15T15:14:16.871Z,19.90
2018-09-15T15:16:44.900Z,19.80
2018-09-15T15:19:12.979Z,19.80
2018-09-15T15:21:41.022Z,19.70
2018-09-15T15:24:09.201Z,19.50
2018-09-15T15:26:37.310Z,19.50
2018-09-15T15:29:05.542Z,19.40
2018-09-15T15:31:33.933Z,19.40
2018-09-15T15:34:01.969Z,19.30
2018-09-15T15:36:30.030Z,19.20
2018-09-15T15:38:58.169Z,19.20
2018-09-15T15:41:26.195Z,19.10
2018-09-15T15:43:54.335Z,19.10
2018-09-15T15:46:22.563Z,19.10
2018-09-15T15:48:50.582Z,19.00
2018-09-15T15:51:18.769Z,19.00
2018-09-15T15:53:46.770Z,19.00
2018-09-15T15:56:14.815Z,18.90
2018-09-15T15:58:43.052Z,18.90
2018-09-15T16:01:10.893Z,18.90
2018-09-15T16:03:38.934Z,18.90
2018-09-15T16:06:06.998Z,18.90
2018-09-15T16:08:35.055Z,18.80
2018-09-15T16:11:03.198Z,18.70
2018-09-15T16:13:31.161Z,18.70
2018-09-15T16:15:59.181Z,18.70
2018-09-15T16:18:27.255Z,18.70
2018-09-15T16:20:55.278Z,18.60
2018-09-15T16:23:23.405Z,18.60
2018-09-15T16:25:51.472Z,18.70
2018-09-15T16:28:19.563Z,18.70
2018-09-15T16:30:47.592Z,18.70
2018-09-15T16:33:15.630Z,18.70
2018-09-15T16:35:43.767Z,18.70
2018-09-15T16:38:11.815Z,18.70
2018-09-15T16:40:39.944Z,18.70
2018-09-15T16:43:07.966Z,18.60
2018-09-15T16:45:36.159Z,18.60
2018-09-15T16:48:04.442Z,18.60
2018-09-15T16:50:32.469Z,18.50
2018-09-15T16:53:00.524Z,18.50
2018-09-15T16:55:28.554Z,18.50
2018-09-15T16:57:56.578Z,18.40
2018-09-15T17:00:24.610Z,18.40
2018-09-15T17:02:52.752Z,18.40
2018-09-15T17:05:20.778Z,18.30
2018-09-15T17:07:48.843Z,18.20
2018-09-15T17:10:17.035Z,18.10
2018-09-15T17:12:45.059Z,18.00
2018-09-15T17:15:13.113Z,17.90
2018-09-15T17:17:41.192Z,17.80
2018-09-15T17:20:09.226Z,17.70
2018-09-15T17:22:37.296Z,17.50
2018-09-15T17:25:05.301Z,17.50
2018-09-15T17:27:33.322Z,17.30
2018-09-15T17:30:01.372Z,17.20
2018-09-15T17:32:29.412Z,17.10
2018-09-15T17:34:57.454Z,17.10
2018-09-15T17:37:25.478Z,17.00
2018-09-15T17:39:53.644Z,17.00
2018-09-15T17:42:21.639Z,16.90
2018-09-15T17:44:49.669Z,16.90
2018-09-15T17:47:17.720Z,16.90
2018-09-15T17:49:45.749Z,16.80
2018-09-15T17:52:13.793Z,16.70
2018-09-15T17:54:42.326Z,16.60
2018-09-15T17:57:10.329Z,16.60
2018-09-15T17:59:38.370Z,16.50
2018-09-15T18:02:06.416Z,16.40
2018-09-15T18:04:34.542Z,16.40
2018-09-15T18:07:02.613Z,16.30
2018-09-15T18:09:30.665Z,16.20
2018-09-15T18:11:58.776Z,16.20
2018-09-15T18:14:26.810Z,16.10
2018-09-15T18:16:54.841Z,16.10
2018-09-15T18:19:22.879Z,16.00
2018-09-15T18:21:51.168Z,16.00
2018-09-15T18:24:19.179Z,16.00
2018-09-15T18:26:47.242Z,15.90
2018-09-15T18:29:15.322Z,15.90
2018-09-15T18:31:43.374Z,15.90
2018-09-15T18:34:11.421Z,15.90
2018-09-15T18:36:39.539Z,15.80
2018-09-15T18:39:08.741Z,15.90
2018-09-15T18:41:36.879Z,15.90
2018-09-15T18:44:05.119Z,15.90
2018-09-15T18:46:33.702Z,15.90
2018-09-15T18:49:01.774Z,15.90
2018-09-15T18:51:29.856Z,15.90
2018-09-15T18:53:57.895Z,15.90
2018-09-15T18:56:25.960Z,15.80
2018-09-15T18:58:54.005Z,15.80
2018-09-15T19:01:22.051Z,15.80
2018-09-15T19:03:50.102Z,15.70
2018-09-15T19:06:18.145Z,15.70
2018-09-15T19:08:46.181Z,15.60
2018-09-15T19:11:14.250Z,15.50
2018-09-15T19:13:42.302Z,15.50
2018-09-15T19:16:10.564Z,15.50
2018-09-15T19:18:38.597Z,15.50
2018-09-15T19:21:06.671Z,15.50
2018-09-15T19:23:34.687Z,15.50
2018-09-15T19:26:02.798Z,15.50
2018-09-15T19:28:30.827Z,15.50
2018-09-15T19:30:58.866Z,15.50
2018-09-15T19:33:26.896Z,15.50
2018-09-15T19:35:54.939Z,15.40
2018-09-15T19:38:23.045Z,15.40
2018-09-15T19:40:51.111Z,15.30
2018-09-15T19:43:19.498Z,15.30
2018-09-15T19:45:47.886Z,15.20
2018-09-15T19:48:15.833Z,15.10
2018-09-15T19:50:44.019Z,15.00
2018-09-15T19:53:12.055Z,15.00
2018-09-15T19:55:40.119Z,14.90
2018-09-15T19:58:08.160Z,14.80
2018-09-15T20:00:36.191Z,14.70
2018-09-15T20:03:04.225Z,14.70
2018-09-15T20:05:32.256Z,14.60
2018-09-15T20:08:00.282Z,14.50
2018-09-15T20:10:28.315Z,14.50
2018-09-15T20:12:56.498Z,14.40
2018-09-15T20:15:29.759Z,14.30
2018-09-15T20:17:57.404Z,14.30
2018-09-15T20:20:24.866Z,14.20
2018-09-15T20:22:54.258Z,14.20
2018-09-15T20:25:22.308Z,14.20
2018-09-15T20:27:50.498Z,14.10
2018-09-15T20:30:18.534Z,14.10
2018-09-15T20:32:46.611Z,14.00
2018-09-15T20:35:14.630Z,14.00
2018-09-15T20:37:42.662Z,14.00
2018-09-15T20:40:10.863Z,13.90
2018-09-15T20:42:39.857Z,13.90
2018-09-15T20:45:08.270Z,13.90
2018-09-15T20:47:36.402Z,13.80
2018-09-15T20:50:04.475Z,13.80
2018-09-15T20:52:32.508Z,13.80
2018-09-15T20:55:00.542Z,13.80
2018-09-15T20:57:28.602Z,13.80
2018-09-15T20:59:56.636Z,13.80
2018-09-15T21:02:24.659Z,13.80
2018-09-15T21:04:52.704Z,13.80
2018-09-15T21:07:20.724Z,13.70
2018-09-15T21:09:48.762Z,13.70
2018-09-15T21:12:16.784Z,13.70
2018-09-15T21:14:44.876Z,13.70
2018-09-15T21:17:12.927Z,13.70
2018-09-15T21:19:40.960Z,13.70
2018-09-15T21:22:08.991Z,13.70
2018-09-15T21:24:37.014Z,13.70
2018-09-15T21:27:05.096Z,13.70
2018-09-15T21:29:33.130Z,13.70
2018-09-15T21:32:01.288Z,13.70
2018-09-15T21:34:29.330Z,13.70
2018-09-15T21:36:57.366Z,13.70
2018-09-15T21:39:25.403Z,13.70
2018-09-15T21:41:53.454Z,13.70
2018-09-15T21:44:21.491Z,13.70
2018-09-15T21:46:49.587Z,13.70
2018-09-15T21:49:17.670Z,13.70
2018-09-15T21:51:45.713Z,13.70
2018-09-15T21:54:13.751Z,13.70
2018-09-15T21:56:41.970Z,13.70
2018-09-15T21:59:09.998Z,13.70
2018-09-15T22:01:38.051Z,13.70
2018-09-15T22:04:11.639Z,13.70
2018-09-15T22:06:39.683Z,13.70
2018-09-15T22:09:09.192Z,13.70
2018-09-15T22:11:37.259Z,13.60
2018-09-15T22:14:05.318Z,13.60
2018-09-15T22:16:33.506Z,13.60
2018-09-15T22:19:01.546Z,13.60
2018-09-15T22:21:29.583Z,13.60
2018-09-15T22:23:57.608Z,13.60
2018-09-15T22:26:25.638Z,13.50
2018-09-15T22:28:53.683Z,13.50
2018-09-15T22:31:21.754Z,13.50
2018-09-15T22:33:49.786Z,13.50
2018-09-15T22:36:17.830Z,13.40
2018-09-15T22:38:45.858Z,13.40
2018-09-15T22:41:13.897Z,13.40
2018-09-15T22:43:41.925Z,13.40
2018-09-15T22:46:09.957Z,13.40
2018-09-15T22:48:38.024Z,13.40
2018-09-15T22:51:06.415Z,13.40
2018-09-15T22:53:34.575Z,13.40
2018-09-15T22:56:02.601Z,13.40
2018-09-15T22:58:30.806Z,13.40
2018-09-15T23:00:59.102Z,13.30
2018-09-15T23:03:27.174Z,13.30
2018-09-15T23:05:55.215Z,13.30
2018-09-15T23:08:23.268Z,13.20
2018-09-15T23:10:51.426Z,13.20
2018-09-15T23:13:19.455Z,13.20
2018-09-15T23:15:47.493Z,13.20
2018-09-15T23:18:15.578Z,13.10
2018-09-15T23:20:43.625Z,13.10
2018-09-15T23:23:11.663Z,13.10
2018-09-15T23:25:39.706Z,13.10
2018-09-15T23:28:07.745Z,13.10
2018-09-15T23:30:35.844Z,13.10
2018-09-15T23:33:04.319Z,13.00
2018-09-15T23:35:32.501Z,13.00
2018-09-15T23:38:00.523Z,13.00
2018-09-15T23:40:28.567Z,13.00
2018-09-15T23:42:56.618Z,12.90
2018-09-15T23:45:24.676Z,12.90
2018-09-15T23:47:52.728Z,12.90
2018-09-15T23:50:20.761Z,12.80
2018-09-15T23:52:48.882Z,12.80
2018-09-15T23:55:16.916Z,12.80
2018-09-15T23:57:44.946Z,12.70
